Time;durP1;ratioP1;P1;durP2;ratioP2;P2;SDS_P1;SDS_P2;PMS_P1;PMS_P2;Temp;Humidity;BMP_temperature;BMP_pressure;BME280_temperature;BME280_humidity;BME280_pressure;Samples;Min_cycle;Max_cycle;Signal;HPM_P1;HPM_P2
2022/10/02 00:02:23;;;;;;;2.70;2.10;;;;;;;15.44;82.32;97738.88;104635;1274;62068;-22
2022/10/02 00:05:01;;;;;;;1.50;1.30;;;;;;;15.17;83.07;97728.54;104635;1274;75738;-22
2022/10/02 00:07:51;;;;;;;4.70;1.20;;;;;;;15.59;82.81;97725.15;104674;1275;77144;-22
2022/10/02 00:10:22;;;;;;;5.00;1.60;;;;;;;15.85;81.48;97719.02;104651;1277;74335;-22
2022/10/02 00:12:56;;;;;;;1.70;1.30;;;;;;;15.69;81.45;97701.52;104782;1274;62409;-22
2022/10/02 00:15:29;;;;;;;3.30;2.00;;;;;;;15.37;82.28;97704.18;104801;1274;61933;-22
2022/10/02 00:18:03;;;;;;;4.10;1.40;;;;;;;15.08;83.60;97707.23;104661;1276;75754;-22
2022/10/02 00:20:34;;;;;;;2.80;1.50;;;;;;;15.38;83.60;97702.38;104764;1274;76052;-22
2022/10/02 00:23:17;;;;;;;2.30;1.70;;;;;;;15.62;82.28;97691.55;104783;1277;75245;-22
2022/10/02 00:25:51;;;;;;;2.40;1.80;;;;;;;15.49;82.30;97686.96;104984;1274;62947;-22
2022/10/02 00:28:29;;;;;;;4.10;2.10;;;;;;;15.23;82.99;97697.60;104850;1274;63086;-22
2022/10/02 00:30:56;;;;;;;2.40;1.40;;;;;;;15.02;83.99;97699.71;104770;1274;75468;-22
2022/10/02 00:33:57;;;;;;;2.50;1.70;;;;;;;15.40;83.37;97706.99;105032;1274;77434;-22
2022/10/02 00:36:39;;;;;;;4.70;1.60;;;;;;;15.74;81.72;97709.48;105086;1271;74316;-23
2022/10/02 00:39:29;;;;;;;5.90;1.60;;;;;;;15.15;84.08;97717.88;104819;1274;61772;-24
2022/10/02 00:42:20;;;;;;;2.20;1.60;;;;;;;15.08;84.47;97705.22;104867;1274;61916;-24
2022/10/02 00:45:10;;;;;;;1.50;1.10;;;;;;;14.93;85.05;97708.79;104887;1273;74744;-24
2022/10/02 00:48:09;;;;;;;3.40;1.40;;;;;;;15.54;84.06;97710.13;105088;1274;77072;-24
2022/10/02 00:50:51;;;;;;;2.00;1.60;;;;;;;15.92;82.11;97706.10;104576;1271;75409;-24
2022/10/02 00:53:56;;;;;;;2.70;1.50;;;;;;;15.71;81.89;97696.34;104736;1274;62983;-24
2022/10/02 00:56:35;;;;;;;2.90;1.70;;;;;;;15.40;82.71;97692.02;104624;1274;62162;-24
2022/10/02 00:59:19;;;;;;;3.60;1.10;;;;;;;15.15;83.84;97681.25;104714;1271;75778;-24
2022/10/02 01:02:25;;;;;;;3.20;1.60;;;;;;;15.58;83.10;97669.08;104762;1274;75671;-24
2022/10/02 01:04:53;;;;;;;1.80;1.40;;;;;;;15.89;81.23;97659.97;105061;1271;74512;-24
2022/10/02 01:07:20;;;;;;;1.50;1.30;;;;;;;15.72;81.59;97664.58;104831;1274;62170;-24
2022/10/02 01:09:47;;;;;;;1.60;1.20;;;;;;;15.47;82.34;97661.25;104803;1271;61751;-23
2022/10/02 01:12:15;;;;;;;2.70;1.10;;;;;;;15.20;83.26;97656.41;104786;1272;75847;-24
2022/10/02 01:14:42;;;;;;;1.60;1.30;;;;;;;15.46;83.21;97656.84;105105;1271;76125;-24
2022/10/02 01:17:24;;;;;;;1.60;1.30;;;;;;;15.82;81.77;97655.28;104820;1271;74993;-23
2022/10/02 01:19:51;;;;;;;2.00;1.40;;;;;;;15.79;81.50;97650.96;104738;1276;63086;-23
2022/10/02 01:22:21;;;;;;;2.50;1.30;;;;;;;15.54;82.16;97643.75;105139;1271;63116;-23
2022/10/02 01:24:50;;;;;;;4.70;1.50;;;;;;;15.24;83.07;97644.58;105116;1274;75772;-23
2022/10/02 01:27:17;;;;;;;1.10;1.00;;;;;;;15.02;83.58;97641.62;104672;1271;77488;-23
2022/10/02 01:29:45;;;;;;;1.40;1.00;;;;;;;15.43;83.83;97639.70;104856;1272;73587;-23
2022/10/02 01:32:12;;;;;;;2.80;1.10;;;;;;;15.90;81.71;97633.39;104829;1272;63332;-23
2022/10/02 01:34:39;;;;;;;1.60;1.40;;;;;;;15.81;81.24;97640.57;105088;1271;63060;-23
2022/10/02 01:37:06;;;;;;;2.80;1.70;;;;;;;15.47;82.69;97635.14;105078;1272;75716;-23
2022/10/02 01:39:33;;;;;;;2.50;1.80;;;;;;;15.25;83.49;97633.84;105004;1274;75868;-23
2022/10/02 01:42:01;;;;;;;1.40;1.10;;;;;;;15.03;84.25;97632.14;104839;1272;74236;-23
2022/10/02 01:44:29;;;;;;;2.70;1.20;;;;;;;15.40;83.74;97627.27;104958;1271;62811;-23
2022/10/02 01:47:08;;;;;;;3.00;1.40;;;;;;;15.83;82.04;97623.14;104686;1274;61770;-23
2022/10/02 01:49:52;;;;;;;2.20;1.50;;;;;;;15.78;81.79;97624.86;105086;1271;75753;-22
2022/10/02 01:52:34;;;;;;;3.40;1.60;;;;;;;15.28;83.61;97625.41;105074;1271;76947;-20
2022/10/02 01:55:23;;;;;;;1.90;1.10;;;;;;;15.08;84.53;97622.59;105090;1274;75484;-20
2022/10/02 01:58:18;;;;;;;1.20;1.10;;;;;;;15.35;83.93;97618.04;104965;1271;61794;-22
2022/10/02 02:01:04;;;;;;;2.40;1.40;;;;;;;15.45;83.12;97617.57;104887;1274;63214;-22
2022/10/02 02:03:44;;;;;;;1.60;1.50;;;;;;;15.07;84.25;97617.10;104985;1274;74657;-22
2022/10/02 02:06:16;;;;;;;3.10;1.30;;;;;;;14.96;85.43;97613.97;105060;1272;77114;-22
2022/10/02 02:09:01;;;;;;;2.20;1.60;;;;;;;15.27;84.50;97613.25;104881;1274;75722;-22
2022/10/02 02:11:28;;;;;;;2.20;2.00;;;;;;;15.09;84.93;97614.98;105077;1271;61148;-22
2022/10/02 02:14:15;;;;;;;4.90;1.50;;;;;;;14.81;86.32;97617.11;105095;1271;61929;-22
2022/10/02 02:16:55;;;;;;;2.50;1.80;;;;;;;14.75;87.19;97616.92;104975;1271;74853;-23
2022/10/02 02:19:30;;;;;;;3.20;1.60;;;;;;;15.05;86.17;97618.84;104771;1271;76999;-23
2022/10/02 02:22:01;;;;;;;4.00;2.20;;;;;;;14.99;86.04;97620.45;104708;1272;74832;-23
2022/10/02 02:24:31;;;;;;;3.80;1.50;;;;;;;14.75;87.08;97618.75;104702;1271;62991;-23
2022/10/02 02:26:59;;;;;;;2.20;1.30;;;;;;;14.69;88.25;97618.30;104622;1274;61945;-23
2022/10/02 02:29:28;;;;;;;3.80;1.60;;;;;;;15.12;86.26;97620.23;104826;1271;75725;-23
2022/10/02 02:31:56;;;;;;;1.90;1.70;;;;;;;14.99;86.82;97620.21;104567;1274;76800;-23
2022/10/02 02:35:01;;;;;;;2.80;1.40;;;;;;;14.78;87.79;97612.13;104848;1271;74174;-21
2022/10/02 02:37:29;;;;;;;0.90;0.80;;;;;;;14.59;89.38;97608.24;104497;1276;61829;-24
2022/10/02 02:40:02;;;;;;;1.90;1.70;;;;;;;14.79;88.76;97610.27;104755;1275;63258;-24
2022/10/02 02:42:41;;;;;;;1.80;1.40;;;;;;;14.78;88.69;97602.48;104841;1271;75391;-23
2022/10/02 02:45:16;;;;;;;1.10;0.70;;;;;;;14.53;89.79;97596.70;105077;1271;76717;-23
2022/10/02 02:47:54;;;;;;;1.70;1.30;;;;;;;14.76;89.52;97598.38;105036;1271;75523;-23
2022/10/02 02:50:32;;;;;;;1.50;1.30;;;;;;;15.00;88.50;97598.40;105055;1271;61842;-23
2022/10/02 02:53:06;;;;;;;1.40;0.90;;;;;;;14.79;88.74;97594.32;104824;1274;61085;-23
2022/10/02 02:55:35;;;;;;;2.70;1.50;;;;;;;14.89;88.75;97598.42;104845;1271;75613;-22
2022/10/02 02:58:14;;;;;;;1.60;1.40;;;;;;;15.08;87.31;97593.91;105074;1273;76208;-23
2022/10/02 03:00:41;;;;;;;1.70;1.40;;;;;;;14.82;87.16;97584.73;105033;1272;74409;-19
2022/10/02 03:03:08;;;;;;;1.10;1.00;;;;;;;14.68;88.01;97587.62;104829;1274;64487;-19
2022/10/02 03:05:36;;;;;;;1.60;1.20;;;;;;;15.00;87.26;97592.19;104793;1274;63139;-19
2022/10/02 03:08:06;;;;;;;2.80;1.40;;;;;;;15.14;85.42;97592.02;104710;1274;75467;-19
2022/10/02 03:10:55;;;;;;;4.70;1.20;;;;;;;14.94;85.32;97589.20;104792;1274;77004;-19
2022/10/02 03:13:49;;;;;;;1.00;0.90;;;;;;;14.77;86.19;97592.27;105005;1274;74498;-19
2022/10/02 03:16:29;;;;;;;;;;;;;;;14.91;86.10;97596.00;104813;1274;62104;-19
2022/10/02 03:19:38;;;;;;;2.00;1.20;;;;;;;15.17;84.37;97596.85;105022;1274;62588;-19
2022/10/02 03:22:08;;;;;;;1.40;1.30;;;;;;;14.88;85.27;97589.88;104659;1274;75331;-19
2022/10/02 03:24:49;;;;;;;4.60;1.10;;;;;;;14.62;86.22;97590.44;104790;1274;77087;-19
2022/10/02 03:27:24;;;;;;;1.60;1.10;;;;;;;14.54;86.96;97590.83;104642;1275;75273;-18
2022/10/02 03:29:56;;;;;;;1.50;1.20;;;;;;;14.82;85.53;97588.96;104574;1275;63114;-19
2022/10/02 03:32:23;;;;;;;1.70;1.40;;;;;;;14.76;85.78;97587.87;104664;1274;61414;-19
2022/10/02 03:34:50;;;;;;;1.50;1.40;;;;;;;14.48;86.80;97588.40;104598;1274;76607;-19
2022/10/02 03:37:17;;;;;;;2.40;1.10;;;;;;;14.29;87.99;97583.33;104658;1275;76928;-19
2022/10/02 03:39:44;;;;;;;1.50;1.40;;;;;;;14.61;86.80;97580.09;104796;1274;75445;-19
2022/10/02 03:42:12;;;;;;;3.50;1.70;;;;;;;14.67;86.03;97576.58;105030;1274;61798;-19
2022/10/02 03:44:39;;;;;;;1.70;1.50;;;;;;;14.47;86.63;97579.23;104787;1275;61728;-19
2022/10/02 03:47:06;;;;;;;1.40;1.30;;;;;;;14.31;87.66;97577.51;104954;1274;76779;-19
2022/10/02 03:49:33;;;;;;;1.90;1.40;;;;;;;14.43;86.89;97571.70;104797;1274;76802;-19
2022/10/02 03:52:00;;;;;;;4.40;1.50;;;;;;;14.57;85.69;97568.30;104701;1274;75407;-19
2022/10/02 03:54:30;;;;;;;2.30;1.60;;;;;;;14.43;86.45;97571.34;104782;1275;61972;-19
2022/10/02 03:56:59;;;;;;;1.20;1.00;;;;;;;14.23;87.07;97567.63;104876;1274;63134;-19
2022/10/02 03:59:32;;;;;;;3.10;1.50;;;;;;;14.26;86.91;97566.22;104650;1277;75559;-19
2022/10/02 04:02:00;;;;;;;3.50;1.60;;;;;;;14.55;85.30;97566.78;104592;1275;77064;-19
2022/10/02 04:04:39;;;;;;;1.70;1.60;;;;;;;14.44;84.93;97561.80;104630;1274;75396;-19
2022/10/02 04:07:09;;;;;;;2.60;1.60;;;;;;;14.12;86.23;97566.90;104566;1274;63100;-19
2022/10/02 04:09:41;;;;;;;1.50;1.30;;;;;;;13.94;86.81;97564.81;104580;1274;61706;-19
2022/10/02 04:12:12;;;;;;;1.90;1.40;;;;;;;14.21;86.13;97561.45;105057;1272;76377;-19
2022/10/02 04:14:50;;;;;;;3.30;1.50;;;;;;;14.36;84.66;97563.14;104737;1274;75984;-19
2022/10/02 04:17:19;;;;;;;4.70;1.70;;;;;;;14.13;85.46;97566.63;104728;1275;75112;-19
2022/10/02 04:19:58;;;;;;;1.10;1.00;;;;;;;13.91;86.10;97561.39;105089;1271;62141;-19
2022/10/02 04:22:38;;;;;;;0.80;0.80;;;;;;;13.91;86.01;97563.44;104790;1271;62719;-19
2022/10/02 04:25:19;;;;;;;2.00;1.20;;;;;;;14.12;85.10;97565.49;104934;1274;76401;-19
2022/10/02 04:27:52;;;;;;;1.20;1.10;;;;;;;14.07;84.84;97564.84;105020;1272;76841;-20
2022/10/02 04:30:19;;;;;;;1.00;0.80;;;;;;;13.78;85.91;97564.61;104914;1274;75392;-19
2022/10/02 04:32:46;;;;;;;0.70;0.70;;;;;;;13.66;86.82;97563.21;104848;1274;63541;-18
2022/10/02 04:35:43;;;;;;;1.20;1.10;;;;;;;13.92;85.79;97565.95;104894;1272;61860;-18
2022/10/02 04:38:19;;;;;;;1.10;0.70;;;;;;;13.90;85.40;97564.27;104865;1274;75133;-18
2022/10/02 04:41:11;;;;;;;0.90;0.80;;;;;;;13.63;86.29;97566.69;104823;1274;76975;-18
2022/10/02 04:43:57;;;;;;;0.60;0.50;;;;;;;13.47;87.46;97563.20;105055;1272;73740;-18
2022/10/02 04:46:52;;;;;;;1.60;1.10;;;;;;;13.83;85.96;97566.19;104841;1274;62935;-18
2022/10/02 04:50:07;;;;;;;0.50;0.50;;;;;;;13.85;84.95;97562.39;105050;1271;62062;-18
2022/10/02 04:52:50;;;;;;;0.50;0.50;;;;;;;13.48;86.58;97565.47;104547;1277;76605;-18
2022/10/02 04:55:24;;;;;;;0.60;0.50;;;;;;;13.35;87.37;97564.70;104466;1278;76838;-18
2022/10/02 04:58:19;;;;;;;0.50;0.50;;;;;;;13.56;86.15;97554.64;104502;1281;75479;-17
2022/10/02 05:00:49;;;;;;;0.50;0.50;;;;;;;13.46;85.67;97544.97;104444;1278;61713;-17
2022/10/02 05:03:21;;;;;;;2.20;0.70;;;;;;;13.17;86.85;97547.59;104414;1278;61732;-17
2022/10/02 05:06:32;;;;;;;4.60;0.80;;;;;;;13.00;87.54;97547.63;104267;1281;76958;-17
2022/10/02 05:09:00;;;;;;;0.50;0.50;;;;;;;13.36;86.32;97550.19;104128;1284;76854;-18
2022/10/02 05:11:27;;;;;;;0.50;0.50;;;;;;;13.27;86.47;97551.91;104477;1278;73214;-17
2022/10/02 05:14:20;;;;;;;2.10;0.40;;;;;;;13.14;86.97;97551.45;104540;1278;63435;-17
2022/10/02 05:16:56;;;;;;;0.60;0.40;;;;;;;13.01;88.13;97550.36;104421;1278;61179;-17
2022/10/02 05:19:32;;;;;;;1.30;0.60;;;;;;;13.49;86.44;97550.33;104149;1281;76645;-17
2022/10/02 05:22:06;;;;;;;0.60;0.40;;;;;;;13.41;86.23;97545.37;104352;1281;75511;-18
2022/10/02 05:24:49;;;;;;;3.10;0.50;;;;;;;13.25;86.91;97554.83;104598;1272;74320;-18
2022/10/02 05:27:47;;;;;;;0.50;0.50;;;;;;;13.11;88.26;97559.61;105056;1271;63617;-17
2022/10/02 05:30:18;;;;;;;0.30;0.30;;;;;;;13.27;86.61;97549.36;104890;1274;61893;-16
2022/10/02 05:33:03;;;;;;;1.20;0.70;;;;;;;13.12;85.34;97549.02;104684;1271;74626;-19
2022/10/02 05:35:37;;;;;;;0.70;0.60;;;;;;;12.94;86.44;97564.55;104846;1271;76920;-18
2022/10/02 05:38:26;;;;;;;0.30;0.30;;;;;;;12.56;87.26;97556.84;104758;1272;75484;-19
2022/10/02 05:41:03;;;;;;;0.30;0.30;;;;;;;12.86;86.21;97560.66;105121;1274;62592;-19
2022/10/02 05:43:55;;;;;;;0.50;0.50;;;;;;;12.71;86.22;97554.15;104764;1271;62768;-20
2022/10/02 05:46:24;;;;;;;0.50;0.50;;;;;;;12.47;87.34;97560.73;104975;1274;74596;-20
2022/10/02 05:49:00;;;;;;;3.00;0.50;;;;;;;12.29;89.02;97566.77;104946;1272;75462;-21
2022/10/02 05:51:35;;;;;;;0.70;0.70;;;;;;;12.67;87.15;97555.58;105021;1271;75191;-20
2022/10/02 05:54:06;;;;;;;0.60;0.60;;;;;;;12.57;86.94;97559.27;104941;1271;63074;-19
2022/10/02 05:56:36;;;;;;;0.40;0.40;;;;;;;12.22;88.69;97560.11;105109;1271;61842;-19
2022/10/02 05:59:26;;;;;;;0.30;0.30;;;;;;;12.27;89.23;97565.14;104790;1271;76488;-19
2022/10/02 06:01:53;;;;;;;0.50;0.50;;;;;;;12.47;87.81;97567.63;105054;1271;75927;-19
2022/10/02 06:04:27;;;;;;;0.40;0.40;;;;;;;12.04;88.05;97557.86;104980;1274;75346;-19
2022/10/02 06:06:55;;;;;;;0.70;0.40;;;;;;;11.88;87.53;97575.13;104875;1274;63029;-19
2022/10/02 06:09:27;;;;;;;0.40;0.30;;;;;;;11.91;86.64;97575.41;105156;1272;61934;-21
2022/10/02 06:11:58;;;;;;;0.50;0.50;;;;;;;12.02;84.62;97578.80;104731;1275;76619;-20
2022/10/02 06:14:45;;;;;;;0.60;0.60;;;;;;;11.94;84.10;97572.39;105093;1272;77041;-20
2022/10/02 06:17:35;;;;;;;5.80;0.50;;;;;;;11.65;85.89;97595.44;105081;1271;74326;-21
2022/10/02 06:20:11;;;;;;;0.50;0.50;;;;;;;11.73;86.54;97588.87;105056;1274;63168;-19
2022/10/02 06:22:56;;;;;;;0.80;0.60;;;;;;;11.95;85.58;97594.70;104793;1274;62959;-20
2022/10/02 06:25:27;;;;;;;2.30;0.90;;;;;;;11.73;84.62;97586.46;104806;1274;76563;-20
2022/10/02 06:27:59;;;;;;;1.60;1.40;;;;;;;11.55;84.83;97582.67;105070;1271;75853;-20
2022/10/02 06:30:26;;;;;;;1.40;0.80;;;;;;;11.31;84.73;97593.23;104751;1274;75729;-20
2022/10/02 06:33:00;;;;;;;1.30;1.10;;;;;;;11.55;84.09;97599.23;104514;1274;62941;-20
2022/10/02 06:35:30;;;;;;;2.70;1.40;;;;;;;11.50;83.59;97600.08;104744;1271;63052;-20
2022/10/02 06:38:09;;;;;;;1.80;1.40;;;;;;;11.36;84.02;97602.09;104679;1274;76784;-20
2022/10/02 06:40:55;;;;;;;1.40;1.20;;;;;;;11.33;84.16;97606.56;104809;1274;76874;-20
2022/10/02 06:43:39;;;;;;;1.60;1.20;;;;;;;11.59;83.51;97609.38;105079;1271;75437;-21
2022/10/02 06:46:25;;;;;;;4.60;1.50;;;;;;;11.72;82.64;97601.58;105066;1271;63014;-21
2022/10/02 06:49:12;;;;;;;4.00;1.70;;;;;;;11.53;83.33;97622.08;104910;1271;61136;-21
2022/10/02 06:52:04;;;;;;;1.60;1.10;;;;;;;11.12;84.44;97622.16;105077;1271;76817;-21
2022/10/02 06:54:45;;;;;;;2.10;1.60;;;;;;;11.43;83.47;97627.73;105066;1271;77032;-21
2022/10/02 06:57:34;;;;;;;2.00;1.40;;;;;;;11.54;82.47;97625.68;104843;1271;75360;-21
2022/10/02 07:00:01;;;;;;;1.90;1.70;;;;;;;11.50;82.79;97641.30;105046;1274;63156;-21
2022/10/02 07:02:46;;;;;;;2.00;1.30;;;;;;;11.44;83.55;97640.38;105077;1272;63136;-21
2022/10/02 07:05:39;;;;;;;2.10;1.60;;;;;;;11.56;82.81;97642.23;105105;1271;75513;-21
2022/10/02 07:08:45;;;;;;;1.60;1.50;;;;;;;11.69;81.71;97647.33;104999;1271;75768;-21
2022/10/02 07:11:41;;;;;;;3.30;1.40;;;;;;;11.64;81.81;97647.44;104824;1271;74350;-21
2022/10/02 07:14:26;;;;;;;2.10;1.50;;;;;;;11.43;82.82;97656.08;104855;1274;62253;-21
2022/10/02 07:17:00;;;;;;;2.60;1.70;;;;;;;11.57;82.54;97663.31;105007;1272;61913;-21
2022/10/02 07:19:31;;;;;;;1.80;1.50;;;;;;;11.62;80.74;97648.96;105117;1271;76834;-22
2022/10/02 07:22:03;;;;;;;2.20;1.70;;;;;;;11.56;81.86;97661.27;105007;1271;77003;-21
2022/10/02 07:25:20;;;;;;;2.20;1.20;;;;;;;11.56;81.69;97673.68;104695;1271;74334;-22
2022/10/02 07:28:09;;;;;;;1.70;1.40;;;;;;;11.73;81.47;97684.52;104575;1271;62112;-22
2022/10/02 07:30:46;;;;;;;1.60;1.10;;;;;;;11.76;80.46;97677.71;104803;1272;61952;-22
2022/10/02 07:33:51;;;;;;;1.90;1.40;;;;;;;11.74;80.79;97676.87;104709;1274;75675;-23
2022/10/02 07:36:50;;;;;;;1.10;0.90;;;;;;;11.54;80.64;97675.92;104930;1271;76761;-22
2022/10/02 07:39:25;;;;;;;2.50;1.30;;;;;;;11.51;81.52;97678.83;104749;1271;74346;-22
2022/10/02 07:42:07;;;;;;;1.10;1.00;;;;;;;11.81;79.54;97668.55;104661;1271;63068;-23
2022/10/02 07:45:02;;;;;;;1.30;1.00;;;;;;;11.93;79.48;97670.38;104808;1271;61097;-23
2022/10/02 07:47:41;;;;;;;1.70;1.10;;;;;;;11.79;79.75;97677.65;104991;1272;75643;-23
2022/10/02 07:50:18;;;;;;;0.90;0.80;;;;;;;11.67;79.87;97676.66;105082;1271;76957;-23
2022/10/02 07:53:01;;;;;;;1.70;1.10;;;;;;;11.80;79.10;97671.75;104698;1274;74331;-23
2022/10/02 07:55:28;;;;;;;1.90;1.10;;;;;;;11.90;78.85;97681.38;104646;1271;63294;-23
2022/10/02 07:58:09;;;;;;;1.90;1.10;;;;;;;11.87;79.21;97690.90;104760;1271;62736;-23
2022/10/02 08:00:47;;;;;;;1.60;1.30;;;;;;;11.74;79.43;97689.43;104815;1271;75396;-23
2022/10/02 08:03:20;;;;;;;1.30;1.10;;;;;;;11.71;79.23;97668.92;105081;1271;76884;-21
2022/10/02 08:05:50;;;;;;;2.60;1.30;;;;;;;11.87;77.66;97662.74;105069;1274;75468;-22
2022/10/02 08:08:42;;;;;;;3.10;1.20;;;;;;;11.97;77.52;97675.66;105106;1271;61890;-22
2022/10/02 08:11:16;;;;;;;2.30;1.70;;;;;;;11.99;77.79;97687.14;104823;1271;62785;-22
2022/10/02 08:13:58;;;;;;;1.70;1.40;;;;;;;11.89;78.26;97684.70;104688;1271;76285;-22
2022/10/02 08:16:27;;;;;;;1.60;1.30;;;;;;;11.89;78.75;97679.86;105045;1274;77276;-22
2022/10/02 08:18:58;;;;;;;2.00;1.30;;;;;;;12.14;76.73;97675.95;104782;1271;73205;-22
2022/10/02 08:21:25;;;;;;;2.90;1.00;;;;;;;12.16;75.93;97675.77;104686;1274;62097;-22
2022/10/02 08:24:01;;;;;;;2.80;1.40;;;;;;;12.13;75.31;97674.29;104733;1271;63319;-22
2022/10/02 08:26:41;;;;;;;4.60;1.60;;;;;;;12.00;75.93;97672.55;104750;1272;76537;-22
2022/10/02 08:29:46;;;;;;;1.60;1.30;;;;;;;11.82;75.39;97660.27;105086;1271;76958;-22
2022/10/02 08:32:13;;;;;;;1.20;1.00;;;;;;;11.76;76.21;97653.21;104780;1271;74258;-24
2022/10/02 08:34:41;;;;;;;1.20;1.10;;;;;;;12.11;75.47;97662.42;104615;1274;62893;-24
2022/10/02 08:37:23;;;;;;;2.80;1.30;;;;;;;12.33;74.89;97675.11;105116;1272;63029;-25
2022/10/02 08:40:02;;;;;;;1.90;1.30;;;;;;;12.18;73.65;97676.19;105097;1271;76555;-23
2022/10/02 08:42:57;;;;;;;1.80;1.10;;;;;;;12.04;74.69;97687.63;105085;1271;77053;-23
2022/10/02 08:45:37;;;;;;;1.20;0.90;;;;;;;11.94;75.90;97685.73;105093;1271;75295;-22
2022/10/02 08:48:22;;;;;;;1.30;0.90;;;;;;;12.22;75.82;97677.54;104995;1271;63157;-23
2022/10/02 08:51:12;;;;;;;1.40;1.30;;;;;;;12.60;74.60;97677.46;105070;1271;61982;-23
2022/10/02 08:53:57;;;;;;;1.20;1.10;;;;;;;12.42;74.06;97677.75;104790;1271;74569;-23
2022/10/02 08:56:53;;;;;;;3.60;1.20;;;;;;;12.25;74.48;97667.42;105033;1271;76982;-23
2022/10/02 08:59:51;;;;;;;1.70;1.20;;;;;;;12.21;74.69;97690.89;105085;1271;75429;-25
2022/10/02 09:02:53;;;;;;;1.70;1.20;;;;;;;12.08;73.87;97687.77;105029;1271;63628;-24
2022/10/02 09:05:38;;;;;;;2.30;1.20;;;;;;;12.44;73.20;97699.80;105058;1271;62100;-25
2022/10/02 09:08:08;;;;;;;3.30;1.50;;;;;;;12.26;72.28;97685.82;104789;1271;76556;-25
2022/10/02 09:10:44;;;;;;;1.60;1.20;;;;;;;12.17;73.33;97692.99;105087;1271;77939;-23
2022/10/02 09:13:37;;;;;;;2.70;1.40;;;;;;;12.05;73.93;97691.90;105068;1271;75139;-25
2022/10/02 09:16:08;;;;;;;1.60;1.20;;;;;;;11.98;74.70;97686.16;105091;1271;62907;-23
2022/10/02 09:19:03;;;;;;;3.30;1.70;;;;;;;11.97;73.76;97680.50;104925;1271;63059;-23
2022/10/02 09:21:44;;;;;;;2.40;1.90;;;;;;;12.02;71.91;97697.14;105057;1271;74713;-23
2022/10/02 09:24:30;;;;;;;5.70;1.90;;;;;;;11.89;72.10;97697.55;105086;1271;76992;-23
2022/10/02 09:27:35;;;;;;;1.80;1.50;;;;;;;11.77;72.88;97710.35;104919;1271;73934;-23
2022/10/02 09:30:21;;;;;;;2.00;1.80;;;;;;;11.64;73.38;97705.80;104753;1271;63015;-24
2022/10/02 09:33:17;;;;;;;4.30;1.70;;;;;;;11.58;74.81;97706.75;104781;1271;62844;-23
2022/10/02 09:36:23;;;;;;;2.80;2.00;;;;;;;11.99;73.80;97701.21;105028;1271;74537;-23
2022/10/02 09:39:14;;;;;;;2.50;1.90;;;;;;;11.89;71.51;97687.80;105107;1271;76405;-24
2022/10/02 09:41:56;;;;;;;3.60;2.40;;;;;;;11.84;73.68;97713.79;105093;1271;75515;-23
2022/10/02 09:44:35;;;;;;;4.40;2.80;;;;;;;11.54;76.33;97717.50;104848;1271;61108;-23
2022/10/02 09:47:41;;;;;;;4.30;2.00;;;;;;;11.41;78.18;97710.81;105068;1271;61111;-23
2022/10/02 09:50:21;;;;;;;2.90;2.30;;;;;;;11.69;77.59;97716.19;105094;1271;76770;-23
2022/10/02 09:53:11;;;;;;;3.40;3.00;;;;;;;11.46;78.33;97711.36;104935;1271;76089;-24
2022/10/02 09:56:13;;;;;;;4.20;3.00;;;;;;;11.51;79.51;97711.67;104711;1272;73784;-23
2022/10/02 09:59:11;;;;;;;2.80;1.90;;;;;;;11.22;80.14;97706.98;104612;1271;61803;-25
2022/10/02 10:01:56;;;;;;;3.20;2.50;;;;;;;11.46;78.60;97699.74;105016;1271;63057;-23
2022/10/02 10:04:50;;;;;;;4.20;3.00;;;;;;;11.72;77.73;97709.84;104763;1271;76264;-23
2022/10/02 10:07:48;;;;;;;2.80;2.50;;;;;;;11.72;77.11;97699.80;104781;1271;76862;-24
2022/10/02 10:10:24;;;;;;;4.00;2.70;;;;;;;11.36;77.21;97707.73;104637;1271;74316;-24
2022/10/02 10:13:11;;;;;;;2.80;2.40;;;;;;;11.12;77.49;97703.30;104826;1271;61144;-23
2022/10/02 10:16:12;;;;;;;3.60;2.60;;;;;;;11.40;76.79;97711.81;104981;1271;63127;-23
2022/10/02 10:19:19;;;;;;;3.30;2.50;;;;;;;11.50;76.37;97714.11;105122;1271;75581;-23
2022/10/02 10:21:46;;;;;;;3.60;3.00;;;;;;;11.50;76.81;97723.27;105120;1271;77089;-23
2022/10/02 10:24:28;;;;;;;3.60;3.00;;;;;;;11.44;77.88;97721.81;104328;1271;997543;-23
2022/10/02 10:27:14;;;;;;;2.00;1.60;;;;;;;11.35;78.47;97723.64;105004;1271;64699;-23
2022/10/02 10:30:12;;;;;;;3.00;2.00;;;;;;;11.49;77.67;97720.91;105067;1273;61882;-23
2022/10/02 10:33:07;;;;;;;2.80;1.90;;;;;;;11.77;76.61;97722.15;105056;1271;76609;-24
2022/10/02 10:36:02;;;;;;;2.40;1.80;;;;;;;11.65;76.52;97721.55;105105;1271;77391;-23
2022/10/02 10:38:49;;;;;;;5.40;2.10;;;;;;;11.49;76.03;97716.94;105090;1271;74093;-23
2022/10/02 10:41:35;;;;;;;2.30;2.00;;;;;;;11.14;76.12;97710.89;105083;1271;61639;-23
2022/10/02 10:44:22;;;;;;;2.60;1.80;;;;;;;11.16;76.71;97716.76;104995;1271;63063;-24
2022/10/02 10:47:17;;;;;;;5.10;1.90;;;;;;;11.53;76.10;97727.67;104912;1271;76549;-24
2022/10/02 10:50:03;;;;;;;4.20;2.10;;;;;;;11.43;77.12;97723.70;104839;1274;77093;-24
2022/10/02 10:52:45;;;;;;;2.00;1.50;;;;;;;11.03;78.71;97722.27;104740;1274;75491;-24
2022/10/02 10:55:28;;;;;;;1.80;1.50;;;;;;;10.68;81.59;97731.96;105050;1271;61097;-23
2022/10/02 10:58:28;;;;;;;2.00;1.70;;;;;;;10.51;82.59;97727.55;105086;1271;62098;-23
2022/10/02 11:01:08;;;;;;;2.10;1.40;;;;;;;10.51;82.00;97721.48;104667;1274;75545;-22
2022/10/02 11:04:06;;;;;;;2.30;1.50;;;;;;;10.38;83.65;97736.84;104733;1277;77046;-22
2022/10/02 11:06:50;;;;;;;2.00;1.40;;;;;;;10.21;84.62;97732.90;105079;1271;75384;-22
2022/10/02 11:09:32;;;;;;;2.10;1.60;;;;;;;10.08;85.77;97736.76;105024;1271;62802;-22
2022/10/02 11:12:21;;;;;;;2.30;1.80;;;;;;;10.31;85.19;97741.04;104699;1274;62779;-23
2022/10/02 11:14:58;;;;;;;1.70;1.50;;;;;;;10.33;85.11;97738.24;105020;1273;76590;-22
2022/10/02 11:18:02;;;;;;;1.30;1.00;;;;;;;10.09;85.08;97738.23;104592;1271;76760;-22
2022/10/02 11:20:57;;;;;;;1.90;1.50;;;;;;;10.40;85.04;97736.15;104745;1274;75565;-22
2022/10/02 11:23:52;;;;;;;5.20;1.50;;;;;;;10.65;84.23;97733.17;104777;1274;61349;-22
2022/10/02 11:26:28;;;;;;;2.20;2.00;;;;;;;10.60;84.70;97734.50;104789;1272;61817;-22
2022/10/02 11:29:14;;;;;;;1.70;1.40;;;;;;;10.47;85.18;97736.70;104673;1272;75578;-22
2022/10/02 11:31:58;;;;;;;2.30;1.90;;;;;;;10.74;85.23;97745.45;104692;1274;75666;-22
2022/10/02 11:34:59;;;;;;;2.80;2.20;;;;;;;10.92;83.59;97735.52;104855;1272;74363;-22
2022/10/02 11:37:54;;;;;;;2.70;2.20;;;;;;;10.78;84.01;97746.15;104713;1271;63109;-22
2022/10/02 11:40:48;;;;;;;1.90;1.50;;;;;;;10.64;84.56;97742.63;104998;1274;62740;-22
2022/10/02 11:43:26;;;;;;;3.10;1.50;;;;;;;10.60;84.73;97736.30;105083;1274;76592;-23
2022/10/02 11:46:21;;;;;;;2.40;1.80;;;;;;;10.93;83.34;97744.66;104812;1271;75912;-23
2022/10/02 11:49:25;;;;;;;2.70;2.00;;;;;;;10.91;83.35;97746.45;104886;1274;75360;-23
2022/10/02 11:52:20;;;;;;;2.50;2.20;;;;;;;10.71;84.25;97745.34;105082;1272;62937;-23
2022/10/02 11:55:08;;;;;;;1.60;1.40;;;;;;;10.75;85.07;97752.05;104982;1271;63072;-22
2022/10/02 11:57:55;;;;;;;2.60;2.00;;;;;;;11.08;83.64;97750.38;104905;1272;75505;-22
2022/10/02 12:00:42;;;;;;;3.30;3.00;;;;;;;11.07;84.09;97755.34;104505;1274;76981;-22
2022/10/02 12:03:45;;;;;;;2.60;2.10;;;;;;;10.79;85.22;97753.36;104604;1274;75380;-22
2022/10/02 12:06:15;;;;;;;2.80;1.60;;;;;;;10.73;86.14;97750.83;104510;1274;64433;-22
2022/10/02 12:08:48;;;;;;;4.30;2.60;;;;;;;11.17;84.72;97761.63;105084;1274;63033;-22
2022/10/02 12:11:34;;;;;;;4.30;2.50;;;;;;;11.47;83.87;97766.22;104952;1272;76811;-22
2022/10/02 12:14:24;;;;;;;2.90;2.50;;;;;;;11.15;84.15;97759.25;104983;1272;77259;-22
2022/10/02 12:16:55;;;;;;;2.50;2.00;;;;;;;11.14;85.47;97757.82;104869;1274;75526;-22
2022/10/02 12:19:39;;;;;;;2.80;2.30;;;;;;;11.24;84.26;97755.02;105048;1274;61157;-22
2022/10/02 12:28:22;;;;;;;3.80;2.70;;;;;;;11.25;82.09;97746.05;104891;1274;76928;-22
2022/10/02 12:31:12;;;;;;;3.70;2.00;;;;;;;11.09;82.82;97756.02;104703;1274;73828;-22
2022/10/02 12:33:58;;;;;;;4.60;2.90;;;;;;;11.39;81.40;97761.50;104837;1274;62906;-22
2022/10/02 12:36:42;;;;;;;4.90;2.80;;;;;;;11.48;80.78;97762.58;105015;1274;61900;-22